Time;durP1;ratioP1;P1;durP2;ratioP2;P2;SDS_P1;SDS_P2;PMS_P1;PMS_P2;Temp;Humidity;BMP_temperature;BMP_pressure;BME280_temperature;BME280_humidity;BME280_pressure;Samples;Min_cycle;Max_cycle;Signal;HPM_P1;HPM_P2
2021/10/03 00:01:30;;;;;;;;;;;;;;;;;;5047617;28;19925;-67
2021/10/03 00:03:57;;;;;;;;;;;;;;;;;;5048030;28;20202;-67
2021/10/03 00:06:24;;;;;;;;;;;;;;;;;;5046531;28;19931;-68
2021/10/03 00:08:51;;;;;;;;;;;;;;;;;;5046336;28;19956;-67
2021/10/03 00:11:18;;;;;;;;;;;;;;;;;;5050516;28;19935;-66
2021/10/03 00:13:45;;;;;;;;;;;;;;;;;;5047674;28;19947;-68
2021/10/03 00:16:12;;;;;;;;;;;;;;;;;;5046335;28;20039;-67
2021/10/03 00:18:39;;;;;;;;;;;;;;;;;;5050171;28;20007;-68
2021/10/03 00:21:07;;;;;;;;;;;;;;;;;;5047880;28;19929;-68
2021/10/03 00:23:34;;;;;;;;;;;;;;;;;;5047748;28;20300;-68
2021/10/03 00:26:01;;;;;;;;;;;;;;;;;;5048216;28;19935;-69
2021/10/03 00:28:28;;;;;;;;;;;;;;;;;;5050021;28;19925;-68
2021/10/03 00:30:56;;;;;;;;;;;;;;;;;;5048313;28;20377;-68
2021/10/03 00:33:23;;;;;;;;;;;;;;;;;;5046224;28;19928;-68
2021/10/03 00:35:51;;;;;;;;;;;;;;;;;;5040715;28;19926;-68
2021/10/03 00:38:18;;;;;;;;;;;;;;;;;;5052171;28;19928;-67
2021/10/03 00:40:45;;;;;;;;;;;;;;;;;;5047058;28;19952;-67
2021/10/03 00:43:12;;;;;;;;;;;;;;;;;;5053671;28;19925;-67
2021/10/03 00:45:39;;;;;;;;;;;;;;;;;;5050603;28;19925;-68
2021/10/03 00:48:06;;;;;;;;;;;;;;;;;;5046649;28;19932;-67
2021/10/03 00:50:33;;;;;;;;;;;;;;;;;;5050684;28;19931;-68
2021/10/03 00:53:00;;;;;;;;;;;;;;;;;;5055423;28;19964;-68
2021/10/03 00:55:27;;;;;;;;;;;;;;;;;;5054070;28;19940;-68
2021/10/03 00:57:54;;;;;;;;;;;;;;;;;;5054672;28;20284;-68
2021/10/03 01:00:21;;;;;;;;;;;;;;;;;;5055324;28;19929;-67
2021/10/03 01:02:48;;;;;;;;;;;;;;;;;;5055560;28;19931;-69
2021/10/03 01:05:15;;;;;;;;;;;;;;;;;;5054494;28;19948;-67
2021/10/03 01:07:42;;;;;;;;;;;;;;;;;;5063124;28;19931;-67
2021/10/03 01:10:09;;;;;;;;;;;;;;;;;;5057803;28;20347;-69
2021/10/03 01:12:36;;;;;;;;;;;;;;;;;;5060788;28;20427;-68
2021/10/03 01:15:03;;;;;;;;;;;;;;;;;;5050053;28;20285;-68
2021/10/03 01:17:30;;;;;;;;;;;;;;;;;;5054807;28;19932;-68
2021/10/03 01:19:57;;;;;;;;;;;;;;;;;;5049774;28;19935;-68
2021/10/03 01:22:24;;;;;;;;;;;;;;;;;;5050295;28;19929;-66
2021/10/03 01:24:52;;;;;;;;;;;;;;;;;;5055350;28;19928;-67
2021/10/03 01:27:20;;;;;;;;;;;;;;;;;;5054475;28;19939;-68
2021/10/03 01:29:49;;;;;;;;;;;;;;;;;;5054376;28;19925;-68
2021/10/03 01:32:16;;;;;;;;;;;;;;;;;;5051315;28;19929;-68
2021/10/03 01:34:43;;;;;;;;;;;;;;;;;;5057647;28;19925;-68
2021/10/03 01:37:10;;;;;;;;;;;;;;;;;;5052166;28;19925;-69
2021/10/03 01:39:37;;;;;;;;;;;;;;;;;;5047574;28;19925;-68
2021/10/03 01:42:04;;;;;;;;;;;;;;;;;;5050732;28;19975;-68
2021/10/03 01:44:31;;;;;;;;;;;;;;;;;;5049485;28;20409;-67
2021/10/03 01:46:58;;;;;;;;;;;;;;;;;;5053235;28;19925;-68
2021/10/03 01:49:25;;;;;;;;;;;;;;;;;;5049134;28;19929;-69
2021/10/03 01:51:52;;;;;;;;;;;;;;;;;;5053755;28;20303;-69
2021/10/03 01:54:19;;;;;;;;;;;;;;;;;;5045502;28;20282;-68
2021/10/03 01:56:46;;;;;;;;;;;;;;;;;;5053850;28;19925;-68
2021/10/03 01:59:13;;;;;;;;;;;;;;;;;;5054193;28;19943;-68
2021/10/03 02:01:43;;;;;;;;;;;;;;;;;;5056851;28;19928;-68
2021/10/03 02:04:10;;;;;;;;;;;;;;;;;;5054512;28;20363;-67
2021/10/03 02:06:37;;;;;;;;;;;;;;;;;;5054893;28;19924;-66
2021/10/03 02:09:04;;;;;;;;;;;;;;;;;;5052925;28;19948;-66
2021/10/03 02:11:31;;;;;;;;;;;;;;;;;;5053485;28;20538;-67
2021/10/03 02:13:58;;;;;;;;;;;;;;;;;;5052000;28;19931;-65
2021/10/03 02:16:25;;;;;;;;;;;;;;;;;;5053146;28;19955;-67
2021/10/03 02:18:54;;;;;;;;;;;;;;;;;;5050228;28;19935;-67
2021/10/03 02:21:22;;;;;;;;;;;;;;;;;;5052520;28;19968;-66
2021/10/03 02:23:49;;;;;;;;;;;;;;;;;;5051711;28;19928;-67
2021/10/03 02:26:16;;;;;;;;;;;;;;;;;;5051922;28;19925;-68
2021/10/03 02:28:43;;;;;;;;;;;;;;;;;;5049112;28;19932;-67
2021/10/03 02:31:11;;;;;;;;;;;;;;;;;;5051447;28;19924;-67
2021/10/03 02:33:38;;;;;;;;;;;;;;;;;;5053407;28;19925;-66
2021/10/03 02:36:05;;;;;;;;;;;;;;;;;;5052873;28;20483;-68
2021/10/03 02:38:32;;;;;;;;;;;;;;;;;;5052044;28;21248;-68
2021/10/03 02:41:00;;;;;;;;;;;;;;;;;;5049896;28;19924;-66
2021/10/03 02:43:27;;;;;;;;;;;;;;;;;;5049851;28;19932;-67
2021/10/03 02:45:54;;;;;;;;;;;;;;;;;;5052147;28;19976;-67
2021/10/03 02:48:21;;;;;;;;;;;;;;;;;;5051429;28;20308;-68
2021/10/03 02:50:48;;;;;;;;;;;;;;;;;;5050935;28;19925;-68
2021/10/03 02:53:15;;;;;;;;;;;;;;;;;;5052571;28;19924;-68
2021/10/03 02:55:42;;;;;;;;;;;;;;;;;;5060368;28;19935;-68
2021/10/03 02:58:09;;;;;;;;;;;;;;;;;;5053045;28;19932;-68
2021/10/03 03:00:36;;;;;;;;;;;;;;;;;;5045605;28;20377;-67
2021/10/03 03:03:03;;;;;;;;;;;;;;;;;;5051278;28;19924;-67
2021/10/03 03:05:29;;;;;;;;;;;;;;;;;;5060028;28;20285;-67
2021/10/03 03:07:56;;;;;;;;;;;;;;;;;;5052532;28;19931;-67
2021/10/03 03:10:23;;;;;;;;;;;;;;;;;;5045324;28;19941;-67
2021/10/03 03:12:50;;;;;;;;;;;;;;;;;;5054935;28;19924;-67
2021/10/03 03:15:17;;;;;;;;;;;;;;;;;;5055214;28;19931;-67
2021/10/03 03:17:44;;;;;;;;;;;;;;;;;;5055266;28;19947;-69
2021/10/03 03:20:11;;;;;;;;;;;;;;;;;;5050383;28;20306;-67
2021/10/03 03:22:38;;;;;;;;;;;;;;;;;;5051430;28;20394;-68
2021/10/03 03:25:05;;;;;;;;;;;;;;;;;;5048853;28;19925;-67
2021/10/03 03:27:32;;;;;;;;;;;;;;;;;;5055213;28;19928;-71
2021/10/03 03:29:59;;;;;;;;;;;;;;;;;;5043083;28;19931;-68
2021/10/03 03:32:26;;;;;;;;;;;;;;;;;;5049508;28;19924;-67
2021/10/03 03:34:53;;;;;;;;;;;;;;;;;;5056096;28;19928;-67
2021/10/03 03:37:20;;;;;;;;;;;;;;;;;;5048916;28;20312;-67
2021/10/03 03:39:46;;;;;;;;;;;;;;;;;;5049577;28;20357;-67
2021/10/03 03:42:13;;;;;;;;;;;;;;;;;;5065150;22;19925;-62
2021/10/03 03:44:40;;;;;;;;;;;;;;;;;;5038502;28;19934;-62
2021/10/03 03:47:07;;;;;;;;;;;;;;;;;;5037506;28;20404;-63
2021/10/03 03:49:34;;;;;;;;;;;;;;;;;;5028294;28;20028;-62
2021/10/03 03:52:01;;;;;;;;;;;;;;;;;;5029559;28;19929;-63
2021/10/03 03:54:28;;;;;;;;;;;;;;;;;;5008540;28;19925;-63
2021/10/03 03:56:55;;;;;;;;;;;;;;;;;;5008683;28;19932;-63
2021/10/03 03:59:25;;;;;;;;;;;;;;;;;;5012778;28;19972;-63
2021/10/03 04:01:52;;;;;;;;;;;;;;;;;;5014248;28;19987;-63
2021/10/03 04:04:19;;;;;;;;;;;;;;;;;;5014560;28;19926;-63
2021/10/03 04:06:46;;;;;;;;;;;;;;;;;;5015190;28;19925;-63
2021/10/03 04:09:13;;;;;;;;;;;;;;;;;;5011243;28;19933;-63
2021/10/03 04:11:40;;;;;;;;;;;;;;;;;;5020661;28;19925;-63
2021/10/03 04:14:07;;;;;;;;;;;;;;;;;;5011830;28;19932;-63
2021/10/03 04:16:33;;;;;;;;;;;;;;;;;;5008807;28;19948;-63
2021/10/03 04:19:00;;;;;;;;;;;;;;;;;;5017883;28;20462;-63
2021/10/03 04:21:27;;;;;;;;;;;;;;;;;;5013525;28;19926;-63
2021/10/03 04:23:54;;;;;;;;;;;;;;;;;;5011464;28;19925;-65
2021/10/03 04:26:21;;;;;;;;;;;;;;;;;;5019955;28;20324;-65
2021/10/03 04:28:48;;;;;;;;;;;;;;;;;;5017576;28;20009;-64
2021/10/03 04:31:15;;;;;;;;;;;;;;;;;;5017624;28;19925;-64
2021/10/03 04:33:42;;;;;;;;;;;;;;;;;;5015876;28;20315;-64
2021/10/03 04:36:09;;;;;;;;;;;;;;;;;;5014860;28;19926;-64
2021/10/03 04:38:36;;;;;;;;;;;;;;;;;;5020929;28;19932;-63
2021/10/03 04:41:03;;;;;;;;;;;;;;;;;;5014694;28;19926;-63
2021/10/03 04:43:30;;;;;;;;;;;;;;;;;;5019178;28;20381;-63
2021/10/03 04:45:57;;;;;;;;;;;;;;;;;;5019562;28;19956;-64
2021/10/03 04:48:24;;;;;;;;;;;;;;;;;;5017735;28;19940;-64
2021/10/03 04:50:51;;;;;;;;;;;;;;;;;;5019816;28;19930;-64
2021/10/03 04:53:18;;;;;;;;;;;;;;;;;;5018627;28;19925;-64
2021/10/03 04:55:45;;;;;;;;;;;;;;;;;;5016639;28;19926;-64
2021/10/03 04:58:12;;;;;;;;;;;;;;;;;;5021311;28;19980;-63
2021/10/03 05:00:39;;;;;;;;;;;;;;;;;;5020155;28;19933;-63
2021/10/03 05:03:06;;;;;;;;;;;;;;;;;;5020641;28;19926;-64
2021/10/03 05:05:33;;;;;;;;;;;;;;;;;;5017616;28;20386;-64
2021/10/03 05:08:00;;;;;;;;;;;;;;;;;;5020730;28;19926;-64
2021/10/03 05:10:27;;;;;;;;;;;;;;;;;;5020172;28;19925;-64
2021/10/03 05:12:54;;;;;;;;;;;;;;;;;;5022011;28;19937;-64
2021/10/03 05:15:21;;;;;;;;;;;;;;;;;;5014795;28;21235;-64
2021/10/03 05:17:48;;;;;;;;;;;;;;;;;;5020047;28;19931;-64
2021/10/03 05:20:15;;;;;;;;;;;;;;;;;;5019584;28;20146;-64
2021/10/03 05:22:41;;;;;;;;;;;;;;;;;;5032848;28;19948;-64
2021/10/03 05:25:09;;;;;;;;;;;;;;;;;;5022052;28;20404;-64
2021/10/03 05:27:36;;;;;;;;;;;;;;;;;;5014333;28;19969;-63
2021/10/03 05:30:03;;;;;;;;;;;;;;;;;;5017242;28;19925;-64
2021/10/03 05:32:30;;;;;;;;;;;;;;;;;;5025830;28;19940;-64
2021/10/03 05:34:57;;;;;;;;;;;;;;;;;;5017493;28;20024;-64
2021/10/03 05:37:24;;;;;;;;;;;;;;;;;;5012500;28;20079;-64
2021/10/03 05:39:51;;;;;;;;;;;;;;;;;;5017922;28;20016;-64
2021/10/03 05:42:18;;;;;;;;;;;;;;;;;;5020071;28;20426;-64
2021/10/03 05:44:45;;;;;;;;;;;;;;;;;;5016330;28;20093;-65
2021/10/03 05:47:12;;;;;;;;;;;;;;;;;;5018785;28;19925;-64
2021/10/03 05:49:39;;;;;;;;;;;;;;;;;;5022614;28;19936;-64
2021/10/03 05:52:06;;;;;;;;;;;;;;;;;;5020453;28;19926;-64
2021/10/03 05:54:32;;;;;;;;;;;;;;;;;;5015305;28;20381;-65
2021/10/03 05:56:59;;;;;;;;;;;;;;;;;;5020203;28;19931;-64
2021/10/03 05:59:26;;;;;;;;;;;;;;;;;;5018611;28;20301;-64
2021/10/03 06:01:53;;;;;;;;;;;;;;;;;;5026400;28;19932;-64
2021/10/03 06:04:20;;;;;;;;;;;;;;;;;;5017269;28;19936;-64
2021/10/03 06:06:47;;;;;;;;;;;;;;;;;;5017557;28;19925;-64
2021/10/03 06:09:14;;;;;;;;;;;;;;;;;;5017770;28;19926;-65
2021/10/03 06:11:41;;;;;;;;;;;;;;;;;;5017959;28;20377;-64
2021/10/03 06:14:08;;;;;;;;;;;;;;;;;;5015464;28;20362;-63
2021/10/03 06:16:35;;;;;;;;;;;;;;;;;;5019037;28;19925;-63
2021/10/03 06:19:02;;;;;;;;;;;;;;;;;;5020395;28;19936;-63
2021/10/03 06:21:30;;;;;;;;;;;;;;;;;;5019751;28;19944;-63
2021/10/03 06:23:57;;;;;;;;;;;;;;;;;;5021272;28;19926;-64
2021/10/03 06:26:24;;;;;;;;;;;;;;;;;;5018492;28;19929;-64
2021/10/03 06:28:51;;;;;;;;;;;;;;;;;;5023005;28;20286;-65
2021/10/03 06:31:18;;;;;;;;;;;;;;;;;;5016695;28;19933;-64
2021/10/03 06:33:45;;;;;;;;;;;;;;;;;;5021309;28;20008;-64
2021/10/03 06:36:12;;;;;;;;;;;;;;;;;;5013851;28;19930;-64
2021/10/03 06:38:39;;;;;;;;;;;;;;;;;;5017537;28;19941;-63
2021/10/03 06:41:06;;;;;;;;;;;;;;;;;;5018250;28;19932;-63
2021/10/03 06:43:35;;;;;;;;;;;;;;;;;;5023919;28;19925;-64
2021/10/03 06:46:02;;;;;;;;;;;;;;;;;;5022344;28;19929;-63
2021/10/03 06:48:29;;;;;;;;;;;;;;;;;;5020479;28;19926;-63
2021/10/03 06:50:56;;;;;;;;;;;;;;;;;;5026898;28;20016;-63
2021/10/03 06:53:23;;;;;;;;;;;;;;;;;;5015995;28;19930;-63
2021/10/03 06:55:50;;;;;;;;;;;;;;;;;;5021518;28;19925;-64
2021/10/03 06:58:17;;;;;;;;;;;;;;;;;;5012709;28;19925;-64
2021/10/03 07:00:44;;;;;;;;;;;;;;;;;;5014012;28;19925;-61
2021/10/03 07:03:11;;;;;;;;;;;;;;;;;;5018640;28;20020;-64
2021/10/03 07:05:38;;;;;;;;;;;;;;;;;;5019355;28;19936;-64
2021/10/03 07:08:05;;;;;;;;;;;;;;;;;;5012847;28;19926;-63
2021/10/03 07:10:32;;;;;;;;;;;;;;;;;;5020150;28;20000;-64
2021/10/03 07:12:59;;;;;;;;;;;;;;;;;;5023902;28;19932;-64
2021/10/03 07:15:26;;;;;;;;;;;;;;;;;;5017128;28;20298;-63
2021/10/03 07:17:53;;;;;;;;;;;;;;;;;;5014049;28;19932;-63
2021/10/03 07:20:20;;;;;;;;;;;;;;;;;;5014460;28;19938;-64
2021/10/03 07:22:47;;;;;;;;;;;;;;;;;;5021114;28;19934;-63
2021/10/03 07:25:14;;;;;;;;;;;;;;;;;;5017931;28;19940;-64
2021/10/03 07:27:41;;;;;;;;;;;;;;;;;;5014178;28;19935;-64
2021/10/03 07:30:08;;;;;;;;;;;;;;;;;;5015246;28;20297;-64
2021/10/03 07:32:35;;;;;;;;;;;;;;;;;;5013356;28;19925;-63
2021/10/03 07:35:02;;;;;;;;;;;;;;;;;;5016712;28;19983;-63
2021/10/03 07:37:29;;;;;;;;;;;;;;;;;;5015458;28;19926;-65
2021/10/03 07:39:57;;;;;;;;;;;;;;;;;;5018967;28;19934;-64
2021/10/03 07:42:24;;;;;;;;;;;;;;;;;;5019800;28;19930;-64
2021/10/03 07:44:51;;;;;;;;;;;;;;;;;;5020509;28;19929;-64
2021/10/03 07:47:18;;;;;;;;;;;;;;;;;;5011677;28;19925;-61
2021/10/03 07:49:45;;;;;;;;;;;;;;;;;;5009466;28;19925;-63
2021/10/03 07:52:12;;;;;;;;;;;;;;;;;;5009168;28;19925;-63
2021/10/03 07:54:39;;;;;;;;;;;;;;;;;;5013110;28;19932;-64
2021/10/03 07:57:06;;;;;;;;;;;;;;;;;;5016617;28;19929;-64
2021/10/03 07:59:33;;;;;;;;;;;;;;;;;;5016349;28;19929;-63
2021/10/03 08:02:00;;;;;;;;;;;;;;;;;;5019057;28;19932;-63
2021/10/03 08:04:27;;;;;;;;;;;;;;;;;;5019781;28;19926;-63
2021/10/03 08:06:54;;;;;;;;;;;;;;;;;;5015769;28;19960;-63
2021/10/03 08:09:21;;;;;;;;;;;;;;;;;;5012686;28;19956;-64
2021/10/03 08:11:48;;;;;;;;;;;;;;;;;;5021679;28;20074;-63
2021/10/03 08:14:15;;;;;;;;;;;;;;;;;;5020006;28;19934;-63
2021/10/03 08:16:42;;;;;;;;;;;;;;;;;;5021688;28;20336;-64
2021/10/03 08:19:09;;;;;;;;;;;;;;;;;;5014440;28;19927;-64
2021/10/03 08:21:36;;;;;;;;;;;;;;;;;;5023254;28;19944;-64
2021/10/03 08:24:03;;;;;;;;;;;;;;;;;;5020992;28;19926;-64
2021/10/03 08:26:30;;;;;;;;;;;;;;;;;;5014773;28;19929;-64
2021/10/03 08:28:57;;;;;;;;;;;;;;;;;;5016640;28;19925;-64
2021/10/03 08:31:24;;;;;;;;;;;;;;;;;;5015705;28;19925;-64
2021/10/03 08:33:51;;;;;;;;;;;;;;;;;;5015558;28;19926;-63
2021/10/03 08:36:18;;;;;;;;;;;;;;;;;;5009675;28;20294;-64
2021/10/03 08:38:45;;;;;;;;;;;;;;;;;;5013890;28;19925;-64
2021/10/03 08:41:12;;;;;;;;;;;;;;;;;;5019679;28;19929;-63
2021/10/03 08:43:39;;;;;;;;;;;;;;;;;;5013577;28;19926;-63
2021/10/03 08:46:08;;;;;;;;;;;;;;;;;;5011828;28;19941;-63
2021/10/03 08:48:35;;;;;;;;;;;;;;;;;;5019869;28;20044;-63
2021/10/03 08:51:02;;;;;;;;;;;;;;;;;;5016598;28;19929;-63
2021/10/03 08:53:29;;;;;;;;;;;;;;;;;;5017564;28;19925;-63
2021/10/03 08:55:57;;;;;;;;;;;;;;;;;;5017640;28;19925;-63
2021/10/03 08:58:24;;;;;;;;;;;;;;;;;;5018042;28;20008;-63
2021/10/03 09:00:51;;;;;;;;;;;;;;;;;;5008216;28;19929;-63
2021/10/03 09:03:18;;;;;;;;;;;;;;;;;;5020372;28;19937;-62
2021/10/03 09:05:45;;;;;;;;;;;;;;;;;;5006009;28;19925;-60
2021/10/03 09:08:12;;;;;;;;;;;;;;;;;;5013652;28;20393;-61
2021/10/03 09:10:39;;;;;;;;;;;;;;;;;;5005614;28;19925;-61
2021/10/03 09:13:06;;;;;;;;;;;;;;;;;;5004970;28;19935;-60
2021/10/03 09:15:33;;;;;;;;;;;;;;;;;;5006174;28;19926;-60
2021/10/03 09:18:00;;;;;;;;;;;;;;;;;;5008055;28;20310;-61
2021/10/03 09:20:27;;;;;;;;;;;;;;;;;;5009335;28;19934;-61
2021/10/03 09:22:54;;;;;;;;;;;;;;;;;;5009576;28;19934;-61
2021/10/03 09:25:21;;;;;;;;;;;;;;;;;;5014084;28;20313;-66
2021/10/03 09:27:48;;;;;;;;;;;;;;;;;;5007099;28;19932;-61
2021/10/03 09:30:15;;;;;;;;;;;;;;;;;;5003876;28;20293;-61
2021/10/03 09:32:42;;;;;;;;;;;;;;;;;;5007420;28;19936;-61
2021/10/03 09:35:09;;;;;;;;;;;;;;;;;;5009518;28;19925;-60
2021/10/03 09:37:37;;;;;;;;;;;;;;;;;;5011578;28;19968;-63
2021/10/03 09:40:04;;;;;;;;;;;;;;;;;;5006097;28;20362;-63
2021/10/03 09:42:31;;;;;;;;;;;;;;;;;;5029976;22;20245;-62
2021/10/03 09:44:58;;;;;;;;;;;;;;;;;;5048005;28;19925;-61
2021/10/03 09:47:25;;;;;;;;;;;;;;;;;;5046896;28;19924;-61
2021/10/03 09:49:52;;;;;;;;;;;;;;;;;;5047635;28;19933;-61
2021/10/03 09:52:18;;;;;;;;;;;;;;;;;;5046496;28;19932;-62
2021/10/03 09:54:47;;;;;;;;;;;;;;;;;;5047903;28;20292;-62
2021/10/03 09:57:14;;;;;;;;;;;;;;;;;;5048011;28;19929;-60
2021/10/03 09:59:41;;;;;;;;;;;;;;;;;;5048780;28;19939;-61
2021/10/03 10:02:08;;;;;;;;;;;;;;;;;;5049575;28;19925;-62
2021/10/03 10:04:34;;;;;;;;;;;;;;;;;;5047863;28;19933;-62
2021/10/03 10:07:02;;;;;;;;;;;;;;;;;;5050904;28;20292;-62
2021/10/03 10:09:29;;;;;;;;;;;;;;;;;;5049354;28;19933;-61
2021/10/03 10:11:56;;;;;;;;;;;;;;;;;;5047391;28;19932;-62
2021/10/03 10:14:23;;;;;;;;;;;;;;;;;;5045311;28;19925;-62
2021/10/03 10:16:52;;;;;;;;;;;;;;;;;;5051618;28;19925;-61
2021/10/03 10:19:19;;;;;;;;;;;;;;;;;;5046960;28;19932;-61
2021/10/03 10:21:46;;;;;;;;;;;;;;;;;;5046252;28;19936;-61
2021/10/03 10:24:13;;;;;;;;;;;;;;;;;;5046963;28;20380;-59
2021/10/03 10:26:40;;;;;;;;;;;;;;;;;;5046354;28;20296;-61
2021/10/03 10:29:07;;;;;;;;;;;;;;;;;;5043142;28;19932;-62
2021/10/03 10:31:34;;;;;;;;;;;;;;;;;;5046867;28;19931;-62
2021/10/03 10:34:02;;;;;;;;;;;;;;;;;;5045809;28;19924;-62
2021/10/03 10:36:29;;;;;;;;;;;;;;;;;;5048930;28;20356;-62
2021/10/03 10:38:56;;;;;;;;;;;;;;;;;;5049030;28;20296;-62
2021/10/03 10:41:23;;;;;;;;;;;;;;;;;;5047826;28;19955;-62
2021/10/03 10:43:50;;;;;;;;;;;;;;;;;;5046543;28;20310;-62
2021/10/03 10:46:17;;;;;;;;;;;;;;;;;;5048661;28;19947;-62
2021/10/03 10:48:44;;;;;;;;;;;;;;;;;;5047108;28;19925;-62
2021/10/03 10:51:11;;;;;;;;;;;;;;;;;;5046848;28;20315;-62
2021/10/03 10:53:39;;;;;;;;;;;;;;;;;;5059052;28;19929;-63
2021/10/03 10:56:06;;;;;;;;;;;;;;;;;;5049545;28;19936;-62
2021/10/03 10:58:33;;;;;;;;;;;;;;;;;;5046673;28;19925;-63
2021/10/03 11:01:00;;;;;;;;;;;;;;;;;;5048326;28;19932;-62
2021/10/03 11:03:27;;;;;;;;;;;;;;;;;;5046002;28;19931;-62
2021/10/03 11:05:54;;;;;;;;;;;;;;;;;;5049523;28;20301;-63
2021/10/03 11:08:21;;;;;;;;;;;;;;;;;;5045462;28;19933;-63
2021/10/03 11:10:48;;;;;;;;;;;;;;;;;;5050433;28;19933;-63
2021/10/03 11:13:15;;;;;;;;;;;;;;;;;;5047008;28;19925;-60
2021/10/03 11:15:42;;;;;;;;;;;;;;;;;;5046162;28;19929;-60
2021/10/03 11:18:09;;;;;;;;;;;;;;;;;;5048138;28;19929;-62
2021/10/03 11:20:36;;;;;;;;;;;;;;;;;;5043107;28;19928;-61
2021/10/03 11:23:03;;;;;;;;;;;;;;;;;;5045675;28;19924;-62
2021/10/03 11:25:31;;;;;;;;;;;;;;;;;;5047842;28;20007;-62
2021/10/03 11:27:58;;;;;;;;;;;;;;;;;;5046353;28;19925;-62
2021/10/03 11:30:25;;;;;;;;;;;;;;;;;;5043493;28;19929;-62
2021/10/03 11:32:52;;;;;;;;;;;;;;;;;;5048188;28;19925;-61
2021/10/03 11:35:19;;;;;;;;;;;;;;;;;;5048524;28;20419;-62
2021/10/03 11:37:48;;;;;;;;;;;;;;;;;;5045540;28;20285;-61
2021/10/03 11:40:15;;;;;;;;;;;;;;;;;;5042800;28;19924;-61
2021/10/03 11:42:42;;;;;;;;;;;;;;;;;;5048152;28;19925;-61
2021/10/03 11:45:09;;;;;;;;;;;;;;;;;;5048857;28;20006;-61
2021/10/03 11:47:36;;;;;;;;;;;;;;;;;;5046010;28;20258;-62
2021/10/03 11:50:03;;;;;;;;;;;;;;;;;;5046539;28;19932;-61
2021/10/03 11:52:30;;;;;;;;;;;;;;;;;;5048076;28;19925;-62
2021/10/03 11:54:57;;;;;;;;;;;;;;;;;;5045273;28;19933;-61
2021/10/03 11:57:30;;;;;;;;;;;;;;;;;;5042936;28;20377;-62
2021/10/03 11:59:57;;;;;;;;;;;;;;;;;;5045679;28;19924;-62
2021/10/03 12:02:24;;;;;;;;;;;;;;;;;;5049546;28;19928;-61
2021/10/03 12:04:51;;;;;;;;;;;;;;;;;;5046556;28;20434;-62
2021/10/03 12:07:18;;;;;;;;;;;;;;;;;;5047968;28;19964;-62
2021/10/03 12:09:45;;;;;;;;;;;;;;;;;;5051659;28;20012;-63
2021/10/03 12:12:12;;;;;;;;;;;;;;;;;;5048341;28;20412;-63
2021/10/03 12:14:39;;;;;;;;;;;;;;;;;;5045680;28;19924;-62
2021/10/03 12:17:06;;;;;;;;;;;;;;;;;;5049958;28;20462;-62
2021/10/03 12:19:35;;;;;;;;;;;;;;;;;;5045920;28;19925;-63
2021/10/03 12:22:02;;;;;;;;;;;;;;;;;;5048205;28;19925;-63
2021/10/03 12:24:29;;;;;;;;;;;;;;;;;;5048377;28;19925;-63
2021/10/03 12:26:56;;;;;;;;;;;;;;;;;;5050083;28;20316;-63
2021/10/03 12:29:23;;;;;;;;;;;;;;;;;;5048377;28;19924;-63
2021/10/03 12:31:51;;;;;;;;;;;;;;;;;;5049519;28;19924;-63
2021/10/03 12:34:17;;;;;;;;;;;;;;;;;;5045030;28;19924;-63
2021/10/03 12:36:44;;;;;;;;;;;;;;;;;;5048985;28;19925;-64
2021/10/03 12:39:11;;;;;;;;;;;;;;;;;;5047289;28;19939;-62
2021/10/03 12:41:38;;;;;;;;;;;;;;;;;;5045325;28;20019;-62
2021/10/03 12:44:05;;;;;;;;;;;;;;;;;;5047668;28;19924;-62
2021/10/03 12:46:33;;;;;;;;;;;;;;;;;;5052368;28;19925;-62
2021/10/03 12:49:00;;;;;;;;;;;;;;;;;;5051147;28;20027;-62
2021/10/03 12:51:27;;;;;;;;;;;;;;;;;;5052396;28;19964;-63
2021/10/03 12:53:54;;;;;;;;;;;;;;;;;;5052145;28;19955;-60
2021/10/03 12:56:21;;;;;;;;;;;;;;;;;;5052419;28;19929;-61
2021/10/03 12:58:48;;;;;;;;;;;;;;;;;;5050272;28;19925;-63
2021/10/03 13:01:15;;;;;;;;;;;;;;;;;;5051190;28;19924;-62
2021/10/03 13:03:42;;;;;;;;;;;;;;;;;;5050441;28;19932;-62
2021/10/03 13:06:09;;;;;;;;;;;;;;;;;;5049920;28;20408;-62
2021/10/03 13:08:36;;;;;;;;;;;;;;;;;;5053645;28;19931;-64
2021/10/03 13:11:03;;;;;;;;;;;;;;;;;;5052493;28;19928;-64
2021/10/03 13:13:30;;;;;;;;;;;;;;;;;;5052640;28;19925;-62
2021/10/03 13:15:57;;;;;;;;;;;;;;;;;;5049678;28;19933;-63
2021/10/03 13:18:24;;;;;;;;;;;;;;;;;;5051276;28;19955;-62
2021/10/03 13:20:51;;;;;;;;;;;;;;;;;;5051905;28;19932;-62
2021/10/03 13:23:18;;;;;;;;;;;;;;;;;;5051143;28;20373;-63
2021/10/03 13:25:45;;;;;;;;;;;;;;;;;;5050904;28;20019;-63
2021/10/03 13:28:12;;;;;;;;;;;;;;;;;;5051222;28;19929;-63
2021/10/03 13:30:39;;;;;;;;;;;;;;;;;;5052674;28;19932;-62
2021/10/03 13:33:06;;;;;;;;;;;;;;;;;;5050000;28;20011;-63
2021/10/03 13:35:38;;;;;;;;;;;;;;;;;;5051825;28;20008;-63
2021/10/03 13:38:05;;;;;;;;;;;;;;;;;;5051672;28;20016;-63
2021/10/03 13:40:32;;;;;;;;;;;;;;;;;;5051729;28;19929;-61
2021/10/03 13:42:59;;;;;;;;;;;;;;;;;;5051198;28;19929;-63
2021/10/03 13:45:26;;;;;;;;;;;;;;;;;;5053170;28;20305;-63
2021/10/03 13:47:53;;;;;;;;;;;;;;;;;;5043394;28;19928;-62
2021/10/03 13:50:20;;;;;;;;;;;;;;;;;;5052498;28;19925;-63
2021/10/03 13:52:47;;;;;;;;;;;;;;;;;;5051145;28;19925;-63
2021/10/03 13:55:14;;;;;;;;;;;;;;;;;;5050316;28;20385;-63
2021/10/03 13:57:41;;;;;;;;;;;;;;;;;;5050902;28;20316;-61
2021/10/03 14:00:09;;;;;;;;;;;;;;;;;;5051688;28;19931;-62
2021/10/03 14:02:36;;;;;;;;;;;;;;;;;;5051132;28;19932;-63
2021/10/03 14:05:03;;;;;;;;;;;;;;;;;;5051758;28;19925;-61
2021/10/03 14:07:30;;;;;;;;;;;;;;;;;;5048579;28;19925;-62
2021/10/03 14:09:57;;;;;;;;;;;;;;;;;;5051859;28;20019;-62
2021/10/03 14:12:24;;;;;;;;;;;;;;;;;;5052252;28;19999;-63
2021/10/03 14:14:51;;;;;;;;;;;;;;;;;;5049646;28;19976;-62
2021/10/03 14:17:18;;;;;;;;;;;;;;;;;;5051715;28;20558;-63
2021/10/03 14:19:45;;;;;;;;;;;;;;;;;;5049807;28;19925;-63
2021/10/03 14:22:12;;;;;;;;;;;;;;;;;;5049215;28;19925;-63
2021/10/03 14:24:39;;;;;;;;;;;;;;;;;;5051117;28;19931;-64
2021/10/03 14:27:06;;;;;;;;;;;;;;;;;;5050215;28;20377;-62
2021/10/03 14:29:33;;;;;;;;;;;;;;;;;;5047619;28;19978;-63
2021/10/03 14:32:00;;;;;;;;;;;;;;;;;;5051193;28;19932;-63
2021/10/03 14:34:27;;;;;;;;;;;;;;;;;;5041178;28;19946;-62
2021/10/03 14:36:54;;;;;;;;;;;;;;;;;;5044284;28;19929;-62
2021/10/03 14:39:21;;;;;;;;;;;;;;;;;;5046588;28;19944;-61
2021/10/03 14:41:48;;;;;;;;;;;;;;;;;;5051281;28;19931;-63
2021/10/03 14:44:15;;;;;;;;;;;;;;;;;;5048409;28;19925;-63
2021/10/03 14:46:42;;;;;;;;;;;;;;;;;;5051461;28;19940;-64
2021/10/03 14:49:09;;;;;;;;;;;;;;;;;;5047776;28;19932;-63
2021/10/03 14:51:36;;;;;;;;;;;;;;;;;;5050305;28;19925;-63
2021/10/03 14:54:03;;;;;;;;;;;;;;;;;;5050184;28;19925;-62
2021/10/03 14:56:30;;;;;;;;;;;;;;;;;;5050279;28;20288;-60
2021/10/03 14:58:57;;;;;;;;;;;;;;;;;;5051148;28;19932;-62
2021/10/03 15:01:24;;;;;;;;;;;;;;;;;;5050784;28;19931;-63
2021/10/03 15:03:51;;;;;;;;;;;;;;;;;;5046331;28;19929;-62
2021/10/03 15:06:18;;;;;;;;;;;;;;;;;;5048770;28;19925;-62
2021/10/03 15:08:45;;;;;;;;;;;;;;;;;;5047199;28;20282;-63
2021/10/03 15:11:12;;;;;;;;;;;;;;;;;;5048018;28;19939;-62
2021/10/03 15:13:39;;;;;;;;;;;;;;;;;;5049833;28;19925;-62
2021/10/03 15:16:06;;;;;;;;;;;;;;;;;;5051610;28;20134;-61
2021/10/03 15:18:33;;;;;;;;;;;;;;;;;;5049094;28;20388;-63
2021/10/03 15:21:00;;;;;;;;;;;;;;;;;;5050382;28;20312;-63
2021/10/03 15:23:27;;;;;;;;;;;;;;;;;;5047613;28;19932;-62
2021/10/03 15:25:53;;;;;;;;;;;;;;;;;;5048039;28;20023;-62
2021/10/03 15:28:21;;;;;;;;;;;;;;;;;;5048394;28;19931;-62
2021/10/03 15:30:47;;;;;;;;;;;;;;;;;;5047104;28;19925;-62
2021/10/03 15:33:14;;;;;;;;;;;;;;;;;;5049586;28;19925;-63
2021/10/03 15:35:41;;;;;;;;;;;;;;;;;;5049506;28;19925;-62
2021/10/03 15:38:08;;;;;;;;;;;;;;;;;;5047144;28;20019;-63
2021/10/03 15:40:35;;;;;;;;;;;;;;;;;;5040684;28;19924;-62
2021/10/03 15:43:02;;;;;;;;;;;;;;;;;;5063868;22;19924;-60
2021/10/03 15:45:29;;;;;;;;;;;;;;;;;;5039826;28;19924;-61
2021/10/03 15:47:56;;;;;;;;;;;;;;;;;;5043637;28;19994;-61
2021/10/03 15:50:23;;;;;;;;;;;;;;;;;;5044438;28;20307;-60
2021/10/03 15:52:50;;;;;;;;;;;;;;;;;;5048519;28;19986;-61
2021/10/03 15:55:17;;;;;;;;;;;;;;;;;;5043160;28;19932;-61
2021/10/03 15:57:44;;;;;;;;;;;;;;;;;;5041609;28;19925;-62
2021/10/03 16:00:11;;;;;;;;;;;;;;;;;;5041751;28;19939;-63
2021/10/03 16:02:38;;;;;;;;;;;;;;;;;;5046704;28;20021;-62
2021/10/03 16:05:05;;;;;;;;;;;;;;;;;;5040961;28;19925;-62
2021/10/03 16:07:33;;;;;;;;;;;;;;;;;;5048856;28;19925;-62
2021/10/03 16:10:00;;;;;;;;;;;;;;;;;;5040897;28;19928;-62
2021/10/03 16:12:27;;;;;;;;;;;;;;;;;;5045705;28;20345;-62
2021/10/03 16:14:54;;;;;;;;;;;;;;;;;;5046477;28;20300;-62
2021/10/03 16:17:21;;;;;;;;;;;;;;;;;;5047026;28;19925;-62
2021/10/03 16:19:48;;;;;;;;;;;;;;;;;;5047610;28;19992;-62
2021/10/03 16:22:15;;;;;;;;;;;;;;;;;;5048723;28;20015;-62
2021/10/03 16:24:42;;;;;;;;;;;;;;;;;;5050943;28;19928;-62
2021/10/03 16:27:09;;;;;;;;;;;;;;;;;;5050381;28;20296;-62
2021/10/03 16:29:36;;;;;;;;;;;;;;;;;;5049863;28;19925;-62
2021/10/03 16:32:03;;;;;;;;;;;;;;;;;;5045347;28;19931;-62
2021/10/03 16:34:30;;;;;;;;;;;;;;;;;;5049387;28;19924;-62
2021/10/03 16:36:57;;;;;;;;;;;;;;;;;;5045742;28;20412;-62
2021/10/03 16:39:24;;;;;;;;;;;;;;;;;;5047972;28;19924;-61
2021/10/03 16:41:51;;;;;;;;;;;;;;;;;;5047555;28;19929;-60
2021/10/03 16:44:18;;;;;;;;;;;;;;;;;;5047569;28;19935;-62